sensor_id;sensor_type;location;lat;lon;timestamp;pressure;altitude;pressure_sealevel;temperature;humidity
40940;BME280;26666;50.156;7.700;2022-10-31T00:00:27;101009.88;;;11.34;100.00
40940;BME280;26666;50.156;7.700;2022-10-31T00:05:28;101006.88;;;11.39;100.00
40940;BME280;26666;50.156;7.700;2022-10-31T00:10:30;100998.56;;;11.43;100.00
40940;BME280;26666;50.156;7.700;2022-10-31T00:15:36;101003.50;;;11.37;100.00
40940;BME280;26666;50.156;7.700;2022-10-31T00:20:38;100995.91;;;11.32;100.00
40940;BME280;26666;50.156;7.700;2022-10-31T00:25:39;100994.72;;;11.14;100.00
40940;BME280;26666;50.156;7.700;2022-10-31T00:30:41;100989.09;;;11.41;100.00
40940;BME280;26666;50.156;7.700;2022-10-31T00:35:42;101000.38;;;11.54;100.00
40940;BME280;26666;50.156;7.700;2022-10-31T00:40:44;100993.41;;;11.08;100.00
40940;BME280;26666;50.156;7.700;2022-10-31T00:45:46;101004.22;;;11.39;100.00
40940;BME280;26666;50.156;7.700;2022-10-31T00:50:47;100998.94;;;11.28;100.00
40940;BME280;26666;50.156;7.700;2022-10-31T00:55:49;100997.72;;;11.20;100.00
40940;BME280;26666;50.156;7.700;2022-10-31T01:00:50;100998.72;;;11.31;100.00
40940;BME280;26666;50.156;7.700;2022-10-31T01:06:05;101003.00;;;11.20;100.00
40940;BME280;26666;50.156;7.700;2022-10-31T01:11:11;101006.50;;;11.10;100.00
40940;BME280;26666;50.156;7.700;2022-10-31T01:16:15;100998.44;;;11.22;100.00
40940;BME280;26666;50.156;7.700;2022-10-31T01:21:20;100996.16;;;11.18;100.00
40940;BME280;26666;50.156;7.700;2022-10-31T01:26:25;100999.66;;;11.30;100.00
40940;BME280;26666;50.156;7.700;2022-10-31T01:31:29;101006.63;;;11.19;100.00
40940;BME280;26666;50.156;7.700;2022-10-31T01:36:36;100999.78;;;11.51;100.00
40940;BME280;26666;50.156;7.700;2022-10-31T01:41:44;100991.13;;;11.49;100.00
40940;BME280;26666;50.156;7.700;2022-10-31T01:46:53;100998.69;;;11.42;100.00
40940;BME280;26666;50.156;7.700;2022-10-31T01:52:02;100989.44;;;11.25;100.00
40940;BME280;26666;50.156;7.700;2022-10-31T01:57:08;100980.66;;;11.13;100.00
40940;BME280;26666;50.156;7.700;2022-10-31T02:02:12;100981.75;;;11.22;100.00
40940;BME280;26666;50.156;7.700;2022-10-31T02:07:18;100976.00;;;11.17;100.00
40940;BME280;26666;50.156;7.700;2022-10-31T02:12:21;100979.22;;;11.20;100.00
40940;BME280;26666;50.156;7.700;2022-10-31T02:17:22;100970.69;;;11.05;100.00
40940;BME280;26666;50.156;7.700;2022-10-31T02:22:43;100974.50;;;11.13;100.00
40940;BME280;26666;50.156;7.700;2022-10-31T02:38:12;100957.81;;;11.01;100.00
40940;BME280;26666;50.156;7.700;2022-10-31T02:48:33;100959.75;;;11.10;100.00
40940;BME280;26666;50.156;7.700;2022-10-31T02:53:38;100967.44;;;11.02;100.00
40940;BME280;26666;50.156;7.700;2022-10-31T02:58:44;100963.47;;;10.96;100.00
40940;BME280;26666;50.156;7.700;2022-10-31T03:03:51;100959.13;;;11.07;100.00
40940;BME280;26666;50.156;7.700;2022-10-31T03:09:13;100963.09;;;11.12;100.00
40940;BME280;26666;50.156;7.700;2022-10-31T03:14:26;100960.22;;;11.04;100.00
40940;BME280;26666;50.156;7.700;2022-10-31T03:19:34;100957.56;;;10.93;100.00
40940;BME280;26666;50.156;7.700;2022-10-31T03:24:38;100962.84;;;10.93;100.00
40940;BME280;26666;50.156;7.700;2022-10-31T03:29:42;100965.25;;;10.84;100.00
40940;BME280;26666;50.156;7.700;2022-10-31T03:34:46;100963.09;;;10.90;100.00
40940;BME280;26666;50.156;7.700;2022-10-31T03:39:49;100961.16;;;10.80;100.00
40940;BME280;26666;50.156;7.700;2022-10-31T03:44:58;100956.34;;;10.97;100.00
40940;BME280;26666;50.156;7.700;2022-10-31T03:50:00;100955.88;;;11.03;100.00
40940;BME280;26666;50.156;7.700;2022-10-31T03:55:09;100947.47;;;10.87;100.00
40940;BME280;26666;50.156;7.700;2022-10-31T04:00:13;100945.91;;;10.84;100.00
40940;BME280;26666;50.156;7.700;2022-10-31T04:05:15;100947.47;;;10.98;100.00
40940;BME280;26666;50.156;7.700;2022-10-31T04:10:19;100953.81;;;10.95;100.00
40940;BME280;26666;50.156;7.700;2022-10-31T04:15:22;100953.84;;;11.07;100.00
40940;BME280;26666;50.156;7.700;2022-10-31T04:20:33;100952.50;;;11.01;100.00
40940;BME280;26666;50.156;7.700;2022-10-31T04:25:34;100959.59;;;10.89;100.00
40940;BME280;26666;50.156;7.700;2022-10-31T04:30:36;100952.28;;;11.04;100.00
40940;BME280;26666;50.156;7.700;2022-10-31T04:35:37;100951.06;;;10.85;100.00
40940;BME280;26666;50.156;7.700;2022-10-31T04:40:39;100952.03;;;10.96;100.00
40940;BME280;26666;50.156;7.700;2022-10-31T04:45:40;100951.78;;;10.76;100.00
40940;BME280;26666;50.156;7.700;2022-10-31T04:50:42;100962.47;;;10.75;100.00
40940;BME280;26666;50.156;7.700;2022-10-31T04:55:44;100956.81;;;10.79;100.00
40940;BME280;26666;50.156;7.700;2022-10-31T05:00:45;100956.34;;;10.74;100.00
40940;BME280;26666;50.156;7.700;2022-10-31T05:05:47;100952.84;;;10.74;100.00
40940;BME280;26666;50.156;7.700;2022-10-31T05:10:48;100949.88;;;10.78;100.00
40940;BME280;26666;50.156;7.700;2022-10-31T05:15:50;100940.50;;;10.74;100.00
40940;BME280;26666;50.156;7.700;2022-10-31T05:20:51;100936.28;;;10.83;100.00
40940;BME280;26666;50.156;7.700;2022-10-31T05:25:53;100932.16;;;10.68;100.00
40940;BME280;26666;50.156;7.700;2022-10-31T05:30:54;100937.81;;;10.63;100.00
40940;BME280;26666;50.156;7.700;2022-10-31T05:35:56;100928.22;;;10.73;100.00
40940;BME280;26666;50.156;7.700;2022-10-31T05:40:57;100929.31;;;10.71;100.00
40940;BME280;26666;50.156;7.700;2022-10-31T05:45:59;100926.66;;;10.71;100.00
40940;BME280;26666;50.156;7.700;2022-10-31T05:51:00;100929.91;;;10.63;100.00
40940;BME280;26666;50.156;7.700;2022-10-31T05:56:02;100922.69;;;10.65;100.00
40940;BME280;26666;50.156;7.700;2022-10-31T06:01:03;100912.34;;;10.62;100.00
40940;BME280;26666;50.156;7.700;2022-10-31T06:06:05;100916.88;;;10.49;100.00
40940;BME280;26666;50.156;7.700;2022-10-31T06:11:07;100916.19;;;10.58;100.00
40940;BME280;26666;50.156;7.700;2022-10-31T06:16:08;100919.22;;;10.98;100.00
40940;BME280;26666;50.156;7.700;2022-10-31T06:21:10;100919.53;;;10.60;100.00
40940;BME280;26666;50.156;7.700;2022-10-31T06:26:15;100927.59;;;10.58;100.00
40940;BME280;26666;50.156;7.700;2022-10-31T06:31:16;100917.63;;;10.62;100.00
40940;BME280;26666;50.156;7.700;2022-10-31T06:36:18;100922.09;;;10.73;100.00
40940;BME280;26666;50.156;7.700;2022-10-31T06:41:19;100924.03;;;10.71;100.00
40940;BME280;26666;50.156;7.700;2022-10-31T06:46:21;100919.66;;;10.58;100.00
40940;BME280;26666;50.156;7.700;2022-10-31T06:51:22;100913.53;;;10.58;100.00
40940;BME280;26666;50.156;7.700;2022-10-31T06:56:24;100914.03;;;10.85;100.00
40940;BME280;26666;50.156;7.700;2022-10-31T07:06:27;100918.84;;;11.03;100.00
40940;BME280;26666;50.156;7.700;2022-10-31T07:11:29;100928.34;;;10.83;100.00
40940;BME280;26666;50.156;7.700;2022-10-31T07:16:31;100941.06;;;10.78;100.00
40940;BME280;26666;50.156;7.700;2022-10-31T07:21:32;100942.78;;;10.79;100.00
40940;BME280;26666;50.156;7.700;2022-10-31T07:26:34;100936.66;;;10.78;100.00
40940;BME280;26666;50.156;7.700;2022-10-31T07:31:35;100947.34;;;10.88;100.00
40940;BME280;26666;50.156;7.700;2022-10-31T07:36:37;100944.81;;;10.87;100.00
40940;BME280;26666;50.156;7.700;2022-10-31T07:41:38;100951.19;;;10.95;100.00
40940;BME280;26666;50.156;7.700;2022-10-31T07:46:40;100953.22;;;11.03;100.00
40940;BME280;26666;50.156;7.700;2022-10-31T07:51:41;100953.50;;;11.11;100.00
40940;BME280;26666;50.156;7.700;2022-10-31T07:56:47;100958.41;;;11.04;100.00
40940;BME280;26666;50.156;7.700;2022-10-31T08:01:48;100961.19;;;11.37;100.00
40940;BME280;26666;50.156;7.700;2022-10-31T08:06:50;100958.97;;;11.64;100.00
40940;BME280;26666;50.156;7.700;2022-10-31T08:11:53;100955.63;;;11.40;100.00
40940;BME280;26666;50.156;7.700;2022-10-31T08:16:54;100952.97;;;11.40;100.00
40940;BME280;26666;50.156;7.700;2022-10-31T08:21:56;100949.13;;;11.44;100.00
40940;BME280;26666;50.156;7.700;2022-10-31T08:26:57;100946.47;;;11.55;100.00
40940;BME280;26666;50.156;7.700;2022-10-31T08:31:59;100943.09;;;11.64;100.00
40940;BME280;26666;50.156;7.700;2022-10-31T08:37:03;100938.50;;;11.78;100.00
40940;BME280;26666;50.156;7.700;2022-10-31T08:42:05;100935.34;;;11.84;100.00
40940;BME280;26666;50.156;7.700;2022-10-31T08:47:06;100927.50;;;12.26;100.00
40940;BME280;26666;50.156;7.700;2022-10-31T08:52:10;100924.84;;;12.26;100.00
40940;BME280;26666;50.156;7.700;2022-10-31T08:57:14;100910.44;;;12.19;100.00
40940;BME280;26666;50.156;7.700;2022-10-31T09:02:16;100898.53;;;12.34;100.00
40940;BME280;26666;50.156;7.700;2022-10-31T09:07:18;100900.03;;;12.48;100.00
40940;BME280;26666;50.156;7.700;2022-10-31T09:12:22;100903.13;;;12.53;100.00
40940;BME280;26666;50.156;7.700;2022-10-31T09:17:23;100893.66;;;12.60;100.00
40940;BME280;26666;50.156;7.700;2022-10-31T09:22:24;100895.38;;;12.61;100.00
40940;BME280;26666;50.156;7.700;2022-10-31T09:27:26;100885.31;;;12.86;100.00
40940;BME280;26666;50.156;7.700;2022-10-31T09:32:28;100881.16;;;13.03;100.00
40940;BME280;26666;50.156;7.700;2022-10-31T09:37:29;100862.34;;;13.06;100.00
40940;BME280;26666;50.156;7.700;2022-10-31T09:42:47;100869.34;;;13.17;100.00
40940;BME280;26666;50.156;7.700;2022-10-31T09:53:02;100867.19;;;13.32;100.00
40940;BME280;26666;50.156;7.700;2022-10-31T09:58:11;100863.28;;;13.46;100.00
40940;BME280;26666;50.156;7.700;2022-10-31T10:03:35;100853.47;;;13.36;100.00
40940;BME280;26666;50.156;7.700;2022-10-31T10:08:37;100854.19;;;13.48;100.00
40940;BME280;26666;50.156;7.700;2022-10-31T10:19:27;100844.72;;;13.65;100.00
40940;BME280;26666;50.156;7.700;2022-10-31T10:24:43;100842.38;;;13.82;100.00
40940;BME280;26666;50.156;7.700;2022-10-31T10:29:58;100840.25;;;13.75;100.00
40940;BME280;26666;50.156;7.700;2022-10-31T10:35:24;100826.41;;;13.91;100.00
40940;BME280;26666;50.156;7.700;2022-10-31T10:40:28;100831.72;;;13.91;100.00
40940;BME280;26666;50.156;7.700;2022-10-31T10:45:30;100816.31;;;14.05;100.00
40940;BME280;26666;50.156;7.700;2022-10-31T10:50:34;100830.56;;;14.13;100.00
40940;BME280;26666;50.156;7.700;2022-10-31T10:55:51;100812.38;;;14.28;100.00
40940;BME280;26666;50.156;7.700;2022-10-31T11:00:54;100802.44;;;14.30;100.00
40940;BME280;26666;50.156;7.700;2022-10-31T11:11:49;100788.25;;;14.39;100.00
40940;BME280;26666;50.156;7.700;2022-10-31T11:17:06;100786.84;;;14.35;100.00
40940;BME280;26666;50.156;7.700;2022-10-31T11:22:15;100784.31;;;14.44;100.00
40940;BME280;26666;50.156;7.700;2022-10-31T11:27:22;100783.06;;;14.48;100.00
40940;BME280;26666;50.156;7.700;2022-10-31T11:32:26;100775.19;;;14.56;100.00
40940;BME280;26666;50.156;7.700;2022-10-31T11:37:34;100759.13;;;14.57;100.00
40940;BME280;26666;50.156;7.700;2022-10-31T11:42:41;100747.75;;;14.55;100.00
40940;BME280;26666;50.156;7.700;2022-10-31T11:47:47;100738.56;;;14.77;100.00
40940;BME280;26666;50.156;7.700;2022-10-31T11:52:51;100742.00;;;14.60;100.00
40940;BME280;26666;50.156;7.700;2022-10-31T11:57:53;100730.25;;;14.63;100.00
40940;BME280;26666;50.156;7.700;2022-10-31T12:08:17;100728.03;;;14.58;100.00
40940;BME280;26666;50.156;7.700;2022-10-31T12:13:29;100701.88;;;14.81;100.00
40940;BME280;26666;50.156;7.700;2022-10-31T12:18:40;100701.47;;;14.94;100.00
40940;BME280;26666;50.156;7.700;2022-10-31T12:50:40;100637.44;;;15.13;100.00
40940;BME280;26666;50.156;7.700;2022-10-31T12:56:06;100631.00;;;15.16;100.00
40940;BME280;26666;50.156;7.700;2022-10-31T13:01:17;100616.44;;;15.02;100.00
40940;BME280;26666;50.156;7.700;2022-10-31T13:06:27;100610.81;;;14.87;100.00
40940;BME280;26666;50.156;7.700;2022-10-31T13:11:43;100608.97;;;14.88;100.00
40940;BME280;26666;50.156;7.700;2022-10-31T13:16:47;100594.53;;;15.08;100.00
40940;BME280;26666;50.156;7.700;2022-10-31T13:22:00;100589.53;;;15.31;100.00
40940;BME280;26666;50.156;7.700;2022-10-31T13:27:13;100587.50;;;15.07;100.00
40940;BME280;26666;50.156;7.700;2022-10-31T13:32:16;100597.72;;;14.94;100.00
40940;BME280;26666;50.156;7.700;2022-10-31T13:47:29;100598.88;;;14.91;100.00
40940;BME280;26666;50.156;7.700;2022-10-31T13:52:30;100594.00;;;14.87;100.00
40940;BME280;26666;50.156;7.700;2022-10-31T13:57:37;100587.50;;;15.07;100.00
40940;BME280;26666;50.156;7.700;2022-10-31T14:02:48;100578.66;;;14.98;100.00
40940;BME280;26666;50.156;7.700;2022-10-31T14:07:52;100560.94;;;14.89;100.00
40940;BME280;26666;50.156;7.700;2022-10-31T14:13:22;100562.59;;;14.90;100.00
40940;BME280;26666;50.156;7.700;2022-10-31T14:18:33;100536.84;;;14.91;100.00
40940;BME280;26666;50.156;7.700;2022-10-31T14:23:38;100530.53;;;14.92;100.00
40940;BME280;26666;50.156;7.700;2022-10-31T14:28:40;100533.19;;;14.92;100.00
40940;BME280;26666;50.156;7.700;2022-10-31T14:33:42;100527.84;;;14.92;100.00
40940;BME280;26666;50.156;7.700;2022-10-31T14:39:21;100509.63;;;14.97;100.00
40940;BME280;26666;50.156;7.700;2022-10-31T14:50:32;100504.56;;;15.12;100.00
40940;BME280;26666;50.156;7.700;2022-10-31T14:55:43;100497.59;;;15.19;100.00
40940;BME280;26666;50.156;7.700;2022-10-31T15:00:46;100498.16;;;15.31;100.00
40940;BME280;26666;50.156;7.700;2022-10-31T15:05:52;100489.69;;;15.01;100.00
40940;BME280;26666;50.156;7.700;2022-10-31T15:10:54;100495.63;;;14.95;100.00
40940;BME280;26666;50.156;7.700;2022-10-31T15:15:56;100480.13;;;14.90;100.00
40940;BME280;26666;50.156;7.700;2022-10-31T15:20:58;100467.72;;;14.99;100.00
40940;BME280;26666;50.156;7.700;2022-10-31T15:26:04;100452.16;;;14.86;100.00
40940;BME280;26666;50.156;7.700;2022-10-31T15:31:14;100436.44;;;14.93;100.00
40940;BME280;26666;50.156;7.700;2022-10-31T15:36:21;100429.94;;;14.95;100.00
40940;BME280;26666;50.156;7.700;2022-10-31T15:41:38;100394.66;;;14.85;100.00
40940;BME280;26666;50.156;7.700;2022-10-31T15:47:16;100392.66;;;14.87;100.00
40940;BME280;26666;50.156;7.700;2022-10-31T15:52:43;100344.81;;;14.95;100.00
40940;BME280;26666;50.156;7.700;2022-10-31T15:57:51;100394.94;;;14.82;100.00
40940;BME280;26666;50.156;7.700;2022-10-31T16:13:32;100386.44;;;14.78;100.00
40940;BME280;26666;50.156;7.700;2022-10-31T16:18:36;100383.44;;;14.73;100.00
40940;BME280;26666;50.156;7.700;2022-10-31T16:23:44;100380.75;;;14.65;100.00
40940;BME280;26666;50.156;7.700;2022-10-31T16:28:54;100387.94;;;14.55;100.00
40940;BME280;26666;50.156;7.700;2022-10-31T16:34:15;100372.09;;;14.45;100.00
40940;BME280;26666;50.156;7.700;2022-10-31T16:39:16;100376.53;;;14.36;100.00
40940;BME280;26666;50.156;7.700;2022-10-31T16:44:23;100374.13;;;14.25;100.00
40940;BME280;26666;50.156;7.700;2022-10-31T16:49:25;100402.44;;;14.16;100.00
40940;BME280;26666;50.156;7.700;2022-10-31T16:54:28;100413.16;;;14.07;100.00
40940;BME280;26666;50.156;7.700;2022-10-31T16:59:31;100419.53;;;13.96;100.00
40940;BME280;26666;50.156;7.700;2022-10-31T17:04:33;100432.50;;;13.81;100.00
40940;BME280;26666;50.156;7.700;2022-10-31T17:09:34;100443.72;;;13.75;100.00
40940;BME280;26666;50.156;7.700;2022-10-31T17:14:36;100449.78;;;13.67;100.00
40940;BME280;26666;50.156;7.700;2022-10-31T17:19:37;100466.16;;;13.63;100.00
40940;BME280;26666;50.156;7.700;2022-10-31T17:24:38;100445.91;;;13.61;100.00
40940;BME280;26666;50.156;7.700;2022-10-31T17:29:40;100450.44;;;13.51;100.00
40940;BME280;26666;50.156;7.700;2022-10-31T17:34:41;100439.72;;;13.43;100.00
40940;BME280;26666;50.156;7.700;2022-10-31T17:39:43;100435.00;;;13.37;100.00
40940;BME280;26666;50.156;7.700;2022-10-31T17:44:45;100457.34;;;13.25;100.00
40940;BME280;26666;50.156;7.700;2022-10-31T17:49:47;100449.31;;;13.16;100.00
40940;BME280;26666;50.156;7.700;2022-10-31T17:54:48;100447.09;;;13.12;100.00
40940;BME280;26666;50.156;7.700;2022-10-31T17:59:50;100446.53;;;13.08;100.00
40940;BME280;26666;50.156;7.700;2022-10-31T18:04:51;100461.94;;;12.95;100.00
40940;BME280;26666;50.156;7.700;2022-10-31T18:09:53;100448.41;;;12.98;100.00
40940;BME280;26666;50.156;7.700;2022-10-31T18:14:54;100438.91;;;12.95;100.00
40940;BME280;26666;50.156;7.700;2022-10-31T18:19:56;100451.78;;;12.90;100.00
40940;BME280;26666;50.156;7.700;2022-10-31T18:24:57;100457.94;;;12.81;100.00
40940;BME280;26666;50.156;7.700;2022-10-31T18:30:03;100435.34;;;12.77;100.00
40940;BME280;26666;50.156;7.700;2022-10-31T18:35:05;100436.06;;;12.69;100.00
40940;BME280;26666;50.156;7.700;2022-10-31T18:40:07;100444.28;;;12.56;100.00
40940;BME280;26666;50.156;7.700;2022-10-31T18:45:09;100453.38;;;12.44;100.00
40940;BME280;26666;50.156;7.700;2022-10-31T18:50:30;100442.34;;;12.39;100.00
40940;BME280;26666;50.156;7.700;2022-10-31T18:55:32;100435.28;;;12.39;100.00
40940;BME280;26666;50.156;7.700;2022-10-31T19:00:33;100430.09;;;12.38;100.00
40940;BME280;26666;50.156;7.700;2022-10-31T19:05:35;100419.53;;;12.18;100.00
40940;BME280;26666;50.156;7.700;2022-10-31T19:10:39;100431.91;;;12.18;100.00
40940;BME280;26666;50.156;7.700;2022-10-31T19:15:41;100419.38;;;12.20;100.00
40940;BME280;26666;50.156;7.700;2022-10-31T19:20:42;100411.72;;;12.07;100.00
40940;BME280;26666;50.156;7.700;2022-10-31T19:25:43;100408.22;;;12.16;100.00
40940;BME280;26666;50.156;7.700;2022-10-31T19:30:54;100413.38;;;12.18;100.00
40940;BME280;26666;50.156;7.700;2022-10-31T19:36:15;100407.53;;;11.95;100.00
40940;BME280;26666;50.156;7.700;2022-10-31T19:41:24;100417.22;;;11.84;100.00
40940;BME280;26666;50.156;7.700;2022-10-31T19:46:26;100405.13;;;11.82;100.00
40940;BME280;26666;50.156;7.700;2022-10-31T19:51:48;100394.97;;;11.87;100.00
40940;BME280;26666;50.156;7.700;2022-10-31T19:56:49;100404.41;;;11.80;100.00
40940;BME280;26666;50.156;7.700;2022-10-31T20:01:51;100402.31;;;11.64;100.00
40940;BME280;26666;50.156;7.700;2022-10-31T20:06:52;100396.72;;;11.67;100.00
40940;BME280;26666;50.156;7.700;2022-10-31T20:11:54;100388.66;;;11.69;100.00
40940;BME280;26666;50.156;7.700;2022-10-31T20:16:55;100381.97;;;11.64;100.00
40940;BME280;26666;50.156;7.700;2022-10-31T20:21:57;100372.50;;;11.62;100.00
40940;BME280;26666;50.156;7.700;2022-10-31T20:26:59;100375.84;;;11.54;100.00
40940;BME280;26666;50.156;7.700;2022-10-31T20:32:00;100363.19;;;11.68;100.00
40940;BME280;26666;50.156;7.700;2022-10-31T20:37:01;100362.28;;;11.48;100.00
40940;BME280;26666;50.156;7.700;2022-10-31T20:47:05;100344.22;;;11.53;100.00
40940;BME280;26666;50.156;7.700;2022-10-31T20:52:06;100342.25;;;11.45;100.00
40940;BME280;26666;50.156;7.700;2022-10-31T20:57:07;100342.13;;;11.47;100.00
40940;BME280;26666;50.156;7.700;2022-10-31T21:02:09;100340.72;;;11.33;100.00
40940;BME280;26666;50.156;7.700;2022-10-31T21:07:11;100338.75;;;11.35;100.00
40940;BME280;26666;50.156;7.700;2022-10-31T21:12:12;100339.72;;;11.34;100.00
40940;BME280;26666;50.156;7.700;2022-10-31T21:17:14;100325.53;;;11.35;100.00
40940;BME280;26666;50.156;7.700;2022-10-31T21:22:15;100338.41;;;11.09;100.00
40940;BME280;26666;50.156;7.700;2022-10-31T21:27:16;100336.91;;;11.16;100.00
40940;BME280;26666;50.156;7.700;2022-10-31T21:32:18;100331.91;;;11.22;100.00
40940;BME280;26666;50.156;7.700;2022-10-31T21:37:19;100325.78;;;11.22;100.00
40940;BME280;26666;50.156;7.700;2022-10-31T21:42:21;100339.00;;;11.22;100.00
40940;BME280;26666;50.156;7.700;2022-10-31T21:47:23;100338.84;;;11.14;100.00
40940;BME280;26666;50.156;7.700;2022-10-31T21:52:24;100323.97;;;11.32;100.00
40940;BME280;26666;50.156;7.700;2022-10-31T21:57:26;100314.81;;;11.36;100.00
40940;BME280;26666;50.156;7.700;2022-10-31T22:02:27;100311.88;;;11.30;100.00
40940;BME280;26666;50.156;7.700;2022-10-31T22:07:30;100311.31;;;11.26;100.00
40940;BME280;26666;50.156;7.700;2022-10-31T22:12:32;100314.09;;;11.24;100.00
40940;BME280;26666;50.156;7.700;2022-10-31T22:17:33;100315.75;;;11.16;100.00
40940;BME280;26666;50.156;7.700;2022-10-31T22:22:35;100304.47;;;11.14;100.00
40940;BME280;26666;50.156;7.700;2022-10-31T22:27:36;100292.22;;;11.22;100.00
40940;BME280;26666;50.156;7.700;2022-10-31T22:32:38;100284.03;;;11.25;100.00
40940;BME280;26666;50.156;7.700;2022-10-31T22:37:39;100279.31;;;11.39;100.00
40940;BME280;26666;50.156;7.700;2022-10-31T22:42:40;100272.50;;;11.46;100.00
40940;BME280;26666;50.156;7.700;2022-10-31T22:47:42;100251.59;;;11.72;100.00
40940;BME280;26666;50.156;7.700;2022-10-31T22:52:43;100273.03;;;11.98;100.00
40940;BME280;26666;50.156;7.700;2022-10-31T22:57:45;100273.16;;;12.07;100.00
40940;BME280;26666;50.156;7.700;2022-10-31T23:02:46;100255.19;;;11.81;100.00
40940;BME280;26666;50.156;7.700;2022-10-31T23:07:47;100276.34;;;11.81;100.00
40940;BME280;26666;50.156;7.700;2022-10-31T23:12:49;100275.84;;;11.68;100.00
40940;BME280;26666;50.156;7.700;2022-10-31T23:17:50;100270.69;;;11.66;100.00
40940;BME280;26666;50.156;7.700;2022-10-31T23:22:52;100257.00;;;11.71;100.00
40940;BME280;26666;50.156;7.700;2022-10-31T23:27:54;100261.72;;;11.87;100.00
40940;BME280;26666;50.156;7.700;2022-10-31T23:32:56;100274.13;;;11.86;100.00
40940;BME280;26666;50.156;7.700;2022-10-31T23:37:57;100267.72;;;11.89;100.00
40940;BME280;26666;50.156;7.700;2022-10-31T23:42:59;100251.84;;;11.98;100.00
40940;BME280;26666;50.156;7.700;2022-10-31T23:48:00;100261.84;;;12.24;100.00
40940;BME280;26666;50.156;7.700;2022-10-31T23:53:03;100259.97;;;12.34;100.00
40940;BME280;26666;50.156;7.700;2022-10-31T23:58:04;100275.69;;;12.46;100.00
